createdAt,value
2017-06-10T00:00:56.411Z,16.73
2017-06-10T00:01:56.403Z,16.65
2017-06-10T00:02:56.399Z,16.58
2017-06-10T00:03:56.405Z,16.68
2017-06-10T00:04:56.393Z,16.62
2017-06-10T00:05:56.111Z,16.55
2017-06-10T00:06:56.383Z,16.58
2017-06-10T00:07:56.391Z,16.57
2017-06-10T00:08:56.383Z,16.58
2017-06-10T00:09:56.381Z,16.61
2017-06-10T00:10:56.376Z,16.58
2017-06-10T00:11:56.372Z,16.5
2017-06-10T00:12:56.370Z,16.61
2017-06-10T00:13:56.058Z,16.54
2017-06-10T00:14:56.371Z,16.58
2017-06-10T00:15:56.055Z,16.55
2017-06-10T00:16:55.743Z,16.59
2017-06-10T00:17:56.043Z,16.54
2017-06-10T00:18:56.347Z,16.5
2017-06-10T00:19:56.339Z,16.59
2017-06-10T00:20:56.334Z,16.61
2017-06-10T00:21:56.333Z,16.57
2017-06-10T00:22:56.330Z,16.61
2017-06-10T00:23:56.333Z,16.61
2017-06-10T00:24:56.321Z,16.54
2017-06-10T00:25:56.321Z,16.55
2017-06-10T00:26:56.317Z,16.55
2017-06-10T00:27:56.312Z,16.57
2017-06-10T00:28:56.006Z,16.47
2017-06-10T00:29:56.308Z,16.54
2017-06-10T00:30:55.994Z,16.47
2017-06-10T00:31:56.299Z,16.47
2017-06-10T00:32:55.987Z,16.44
2017-06-10T00:33:55.682Z,16.43
2017-06-10T00:34:55.681Z,16.37
2017-06-10T00:35:56.283Z,16.41
2017-06-10T00:36:55.977Z,16.41
2017-06-10T00:37:55.971Z,16.37
2017-06-10T00:38:56.275Z,16.39
2017-06-10T00:39:56.276Z,16.44
2017-06-10T00:40:56.263Z,16.32
2017-06-10T00:41:56.259Z,16.32
2017-06-10T00:42:55.953Z,16.44
2017-06-10T00:43:56.255Z,16.43
2017-06-10T00:44:56.250Z,16.43
2017-06-10T00:45:55.941Z,16.4
2017-06-10T00:46:56.241Z,16.43
2017-06-10T00:47:56.241Z,16.32
2017-06-10T00:48:56.237Z,16.32
2017-06-10T00:49:56.233Z,16.36
2017-06-10T00:50:56.232Z,16.29
2017-06-10T00:51:56.250Z,16.24
2017-06-10T00:52:56.220Z,16.29
2017-06-10T00:53:56.218Z,16.25
2017-06-10T00:54:55.908Z,16.31
2017-06-10T00:55:55.907Z,16.21
2017-06-10T00:56:55.899Z,16.16
2017-06-10T00:57:56.205Z,16.13
2017-06-10T00:58:56.198Z,16.1
2017-06-10T00:59:56.194Z,16.1
2017-06-10T01:00:55.891Z,16.1
2017-06-10T01:01:56.188Z,16.09
2017-06-10T01:02:56.187Z,16.06
2017-06-10T01:03:56.180Z,16.1
2017-06-10T01:04:56.180Z,16.16
2017-06-10T01:05:55.872Z,16.17
2017-06-10T01:06:56.171Z,16.1
2017-06-10T01:07:56.168Z,16.13
2017-06-10T01:08:56.165Z,16.18
2017-06-10T01:09:55.855Z,16.13
2017-06-10T01:10:56.157Z,16.17
2017-06-10T01:11:56.155Z,16.18
2017-06-10T01:12:55.845Z,16.24
2017-06-10T01:13:55.839Z,16.21
2017-06-10T01:14:56.170Z,16.24
2017-06-10T01:15:56.138Z,16.24
2017-06-10T01:16:55.829Z,16.21
2017-06-10T01:17:55.826Z,16.25
2017-06-10T01:18:55.821Z,16.21
2017-06-10T01:19:55.820Z,16.24
2017-06-10T01:20:56.121Z,16.16
2017-06-10T01:21:56.141Z,16.12
2017-06-10T01:22:56.117Z,16.12
2017-06-10T01:23:55.807Z,16.09
2017-06-10T01:24:56.107Z,16.09
2017-06-10T01:25:56.102Z,16.08
2017-06-10T01:26:56.096Z,16.08
2017-06-10T01:27:56.097Z,16.12
2017-06-10T01:28:56.093Z,16.12
2017-06-10T01:29:56.089Z,16.08
2017-06-10T01:30:56.087Z,15.96
2017-06-10T01:31:56.081Z,16
2017-06-10T01:32:56.075Z,16.03
2017-06-10T01:33:55.763Z,15.98
2017-06-10T01:34:56.068Z,16.02
2017-06-10T01:35:56.067Z,15.99
2017-06-10T01:36:56.063Z,15.99
2017-06-10T01:37:56.057Z,16
2017-06-10T01:38:55.754Z,15.96
2017-06-10T01:39:56.055Z,15.88
2017-06-10T01:40:56.046Z,15.98
2017-06-10T01:41:56.046Z,16.03
2017-06-10T01:42:56.040Z,15.99
2017-06-10T01:43:56.033Z,15.99
2017-06-10T01:44:55.728Z,15.99
2017-06-10T01:45:56.026Z,15.99
2017-06-10T01:46:55.721Z,16.02
2017-06-10T01:47:56.025Z,15.9
2017-06-10T01:48:56.017Z,15.9
2017-06-10T01:49:55.713Z,15.96
2017-06-10T01:50:56.012Z,15.9
2017-06-10T01:51:55.702Z,15.9
2017-06-10T01:52:55.705Z,15.81
2017-06-10T01:53:56.001Z,15.83
2017-06-10T01:54:55.692Z,15.73
2017-06-10T01:55:55.688Z,15.84
2017-06-10T01:56:55.682Z,15.83
2017-06-10T01:57:55.987Z,15.75
2017-06-10T01:58:55.672Z,15.73
2017-06-10T01:59:55.979Z,15.69
2017-06-10T02:00:55.673Z,15.76
2017-06-10T02:01:55.663Z,15.73
2017-06-10T02:02:55.660Z,15.69
2017-06-10T02:03:55.961Z,15.69
2017-06-10T02:04:55.661Z,15.72
2017-06-10T02:05:55.961Z,15.66
2017-06-10T02:06:55.957Z,15.76
2017-06-10T02:07:55.953Z,15.69
2017-06-10T02:08:55.638Z,15.72
2017-06-10T02:09:55.335Z,15.73
2017-06-10T02:10:55.939Z,15.75
2017-06-10T02:11:55.654Z,15.84
2017-06-10T02:12:55.623Z,15.78
2017-06-10T02:13:55.646Z,15.76
2017-06-10T02:14:55.616Z,15.78
2017-06-10T02:15:55.926Z,15.85
2017-06-10T02:16:55.915Z,15.8
2017-06-10T02:17:55.601Z,15.73
2017-06-10T02:18:55.909Z,15.75
2017-06-10T02:19:55.907Z,15.78
2017-06-10T02:20:55.594Z,15.75
2017-06-10T02:21:55.286Z,15.76
2017-06-10T02:22:55.890Z,15.69
2017-06-10T02:23:55.917Z,15.69
2017-06-10T02:24:55.885Z,15.67
2017-06-10T02:25:55.879Z,15.73
2017-06-10T02:26:55.572Z,15.7
2017-06-10T02:27:55.890Z,15.76
2017-06-10T02:28:55.874Z,15.75
2017-06-10T02:29:55.862Z,15.75
2017-06-10T02:30:55.868Z,15.73
2017-06-10T02:31:55.858Z,15.75
2017-06-10T02:32:55.547Z,15.76
2017-06-10T02:33:55.860Z,15.75
2017-06-10T02:34:55.542Z,15.81
2017-06-10T02:35:55.540Z,15.78
2017-06-10T02:36:55.840Z,15.76
2017-06-10T02:37:55.532Z,15.8
2017-06-10T02:38:55.218Z,15.83
2017-06-10T02:39:55.522Z,15.72
2017-06-10T02:40:55.824Z,15.81
2017-06-10T02:41:55.823Z,15.84
2017-06-10T02:42:55.819Z,15.75
2017-06-10T02:43:55.811Z,15.81
2017-06-10T02:44:55.510Z,15.83
2017-06-10T02:45:55.195Z,15.84
2017-06-10T02:46:55.494Z,15.85
2017-06-10T02:47:55.804Z,15.81
2017-06-10T02:48:55.798Z,15.88
2017-06-10T02:49:55.488Z,15.88
2017-06-10T02:50:55.479Z,15.87
2017-06-10T02:51:55.786Z,15.88
2017-06-10T02:52:55.785Z,15.84
2017-06-10T02:53:55.774Z,15.8
2017-06-10T02:54:55.466Z,15.8
2017-06-10T02:55:55.771Z,15.83
2017-06-10T02:56:55.767Z,15.83
2017-06-10T02:57:55.760Z,15.76
2017-06-10T02:58:55.454Z,15.7
2017-06-10T02:59:55.759Z,15.76
2017-06-10T03:00:55.751Z,15.66
2017-06-10T03:01:55.441Z,15.76
2017-06-10T03:02:55.746Z,15.76
2017-06-10T03:03:55.437Z,15.72
2017-06-10T03:04:55.736Z,15.7
2017-06-10T03:05:55.730Z,15.81
2017-06-10T03:06:55.425Z,15.81
2017-06-10T03:07:55.421Z,15.76
2017-06-10T03:08:55.721Z,15.81
2017-06-10T03:09:55.716Z,15.66
2017-06-10T03:10:55.717Z,15.66
2017-06-10T03:11:55.707Z,15.62
2017-06-10T03:12:55.704Z,15.73
2017-06-10T03:13:55.401Z,15.63
2017-06-10T03:14:55.393Z,15.55
2017-06-10T03:15:55.692Z,15.6
2017-06-10T03:16:55.385Z,15.51
2017-06-10T03:17:55.382Z,15.55
2017-06-10T03:18:55.683Z,15.51
2017-06-10T03:19:55.063Z,15.43
2017-06-10T03:20:55.368Z,15.36
2017-06-10T03:21:55.676Z,15.3
2017-06-10T03:22:55.665Z,15.36
2017-06-10T03:23:55.054Z,15.27
2017-06-10T03:24:55.658Z,15.37
2017-06-10T03:25:55.045Z,15.26
2017-06-10T03:26:55.656Z,15.29
2017-06-10T03:27:55.342Z,15.25
2017-06-10T03:28:55.340Z,15.25
2017-06-10T03:29:55.337Z,15.3
2017-06-10T03:30:55.336Z,15.29
2017-06-10T03:31:55.637Z,15.3
2017-06-10T03:32:55.328Z,15.19
2017-06-10T03:33:55.323Z,15.22
2017-06-10T03:34:55.624Z,15.25
2017-06-10T03:35:55.005Z,15.18
2017-06-10T03:36:55.003Z,15.23
2017-06-10T03:37:55.304Z,15.19
2017-06-10T03:38:55.301Z,15.29
2017-06-10T03:39:55.807Z,15.23
2017-06-10T03:40:54.991Z,15.27
2017-06-10T03:41:55.288Z,15.17
2017-06-10T03:42:54.981Z,15.18
2017-06-10T03:43:55.589Z,15.19
2017-06-10T03:44:55.278Z,15.15
2017-06-10T03:45:55.273Z,15.26
2017-06-10T03:46:55.267Z,15.23
2017-06-10T03:47:55.571Z,15.27
2017-06-10T03:48:55.267Z,15.25
2017-06-10T03:49:55.565Z,15.35
2017-06-10T03:50:55.566Z,15.33
2017-06-10T03:51:55.558Z,15.33
2017-06-10T03:52:55.552Z,15.44
2017-06-10T03:53:55.243Z,15.3
2017-06-10T03:54:55.238Z,15.35
2017-06-10T03:55:55.540Z,15.45
2017-06-10T03:56:55.535Z,15.33
2017-06-10T03:57:55.533Z,15.41
2017-06-10T03:58:55.531Z,15.48
2017-06-10T03:59:55.524Z,15.45
2017-06-10T04:00:55.216Z,15.48
2017-06-10T04:01:55.518Z,15.45
2017-06-10T04:02:55.517Z,15.52
2017-06-10T04:03:55.514Z,15.55
2017-06-10T04:04:55.508Z,15.6
2017-06-10T04:05:55.505Z,15.59
2017-06-10T04:06:55.193Z,15.57
2017-06-10T04:07:55.188Z,15.48
2017-06-10T04:08:55.495Z,15.55
2017-06-10T04:09:55.488Z,15.5
2017-06-10T04:10:55.181Z,15.51
2017-06-10T04:11:55.480Z,15.44
2017-06-10T04:12:55.476Z,15.45
2017-06-10T04:13:55.472Z,15.57
2017-06-10T04:14:55.470Z,15.55
2017-06-10T04:15:55.163Z,15.63
2017-06-10T04:16:55.163Z,15.66
2017-06-10T04:17:55.458Z,15.67
2017-06-10T04:18:55.455Z,15.75
2017-06-10T04:19:55.150Z,15.73
2017-06-10T04:20:55.450Z,15.66
2017-06-10T04:21:54.832Z,15.75
2017-06-10T04:22:55.438Z,15.83
2017-06-10T04:23:55.432Z,15.92
2017-06-10T04:24:54.819Z,15.96
2017-06-10T04:25:55.435Z,15.96
2017-06-10T04:26:55.425Z,15.99
2017-06-10T04:27:55.120Z,16
2017-06-10T04:28:55.415Z,16
2017-06-10T04:29:55.416Z,16.05
2017-06-10T04:30:55.104Z,15.99
2017-06-10T04:31:55.406Z,16.09
2017-06-10T04:32:55.103Z,16.1
2017-06-10T04:33:55.403Z,16.1
2017-06-10T04:34:55.094Z,16.22
2017-06-10T04:35:55.395Z,16.39
2017-06-10T04:36:55.389Z,16.46
2017-06-10T04:37:55.383Z,16.47
2017-06-10T04:38:55.379Z,16.47
2017-06-10T04:39:55.072Z,16.57
2017-06-10T04:40:55.374Z,16.49
2017-06-10T04:41:55.370Z,16.51
2017-06-10T04:42:55.367Z,16.51
2017-06-10T04:43:54.778Z,16.59
2017-06-10T04:44:55.361Z,16.62
2017-06-10T04:45:55.052Z,16.68
2017-06-10T04:46:55.351Z,16.57
2017-06-10T04:47:55.044Z,16.68
2017-06-10T04:48:55.347Z,16.66
2017-06-10T04:49:55.039Z,16.76
2017-06-10T04:50:55.031Z,16.74
2017-06-10T04:51:55.335Z,16.79
2017-06-10T04:52:55.022Z,16.72
2017-06-10T04:53:55.021Z,16.76
2017-06-10T04:54:55.017Z,16.84
2017-06-10T04:55:55.320Z,16.82
2017-06-10T04:56:55.316Z,16.89
2017-06-10T04:57:55.005Z,16.92
2017-06-10T04:58:55.006Z,17.04
2017-06-10T04:59:55.302Z,17.22
2017-06-10T05:00:55.329Z,17.44
2017-06-10T05:01:55.298Z,17.72
2017-06-10T05:02:55.296Z,17.9
2017-06-10T05:03:54.988Z,18.26
2017-06-10T05:04:55.287Z,18.81
2017-06-10T05:05:55.283Z,19.34
2017-06-10T05:06:55.001Z,19.49
2017-06-10T05:07:55.280Z,19.44
2017-06-10T05:08:54.969Z,19.32
2017-06-10T05:09:55.275Z,19.24
2017-06-10T05:10:55.267Z,19.12
2017-06-10T05:11:55.267Z,19.05
2017-06-10T05:12:54.955Z,18.91
2017-06-10T05:13:55.263Z,18.85
2017-06-10T05:14:55.257Z,18.83
2017-06-10T05:15:55.253Z,18.74
2017-06-10T05:16:55.251Z,18.85
2017-06-10T05:17:55.245Z,18.79
2017-06-10T05:18:55.248Z,18.83
2017-06-10T05:19:54.932Z,18.94
2017-06-10T05:20:55.236Z,18.91
2017-06-10T05:21:54.927Z,18.94
2017-06-10T05:22:55.232Z,19.01
2017-06-10T05:23:55.229Z,19.16
2017-06-10T05:24:55.225Z,19.37
2017-06-10T05:25:55.227Z,19.53
2017-06-10T05:26:55.220Z,19.85
2017-06-10T05:27:54.910Z,19.94
2017-06-10T05:28:55.217Z,20.17
2017-06-10T05:29:54.904Z,20.4
2017-06-10T05:30:54.899Z,20.53
2017-06-10T05:31:55.207Z,20.74
2017-06-10T05:32:55.200Z,20.89
2017-06-10T05:33:54.898Z,21.01
2017-06-10T05:34:54.586Z,21.08
2017-06-10T05:35:55.194Z,21.25
2017-06-10T05:36:54.885Z,21.32
2017-06-10T05:37:54.891Z,21.43
2017-06-10T05:38:55.184Z,21.6
2017-06-10T05:39:55.184Z,21.96
2017-06-10T05:40:54.872Z,22.19
2017-06-10T05:41:55.179Z,22.4
2017-06-10T05:42:55.175Z,22.8
2017-06-10T05:43:55.169Z,23.13
2017-06-10T05:44:55.171Z,23.4
2017-06-10T05:45:54.861Z,23.59
2017-06-10T05:46:55.167Z,23.54
2017-06-10T05:47:55.166Z,23.59
2017-06-10T05:48:55.163Z,23.91
2017-06-10T05:49:55.160Z,24.55
2017-06-10T05:50:55.165Z,25.09
2017-06-10T05:51:55.158Z,25.3
2017-06-10T05:52:54.854Z,25.59
2017-06-10T05:53:55.158Z,25.51
2017-06-10T05:54:54.851Z,25.34
2017-06-10T05:55:54.856Z,25.25
2017-06-10T05:56:55.151Z,24.94
2017-06-10T05:57:55.151Z,24.66
2017-06-10T05:58:54.540Z,24.53
2017-06-10T05:59:55.147Z,24.19
2017-06-10T06:00:55.146Z,24.25
2017-06-10T06:01:55.144Z,24.13
2017-06-10T06:02:54.866Z,23.96
2017-06-10T06:03:55.143Z,23.74
2017-06-10T06:04:54.839Z,23.67
2017-06-10T06:05:55.143Z,23.49
2017-06-10T06:06:55.145Z,23.37
2017-06-10T06:07:55.158Z,23.36
2017-06-10T06:08:55.138Z,23.16
2017-06-10T06:09:54.836Z,23.36
2017-06-10T06:10:55.137Z,23.55
2017-06-10T06:11:55.136Z,23.76
2017-06-10T06:12:54.524Z,24.16
2017-06-10T06:13:54.831Z,24.43
2017-06-10T06:14:54.827Z,24.66
2017-06-10T06:15:55.132Z,25.01
2017-06-10T06:16:54.825Z,25.07
2017-06-10T06:17:55.132Z,25.18
2017-06-10T06:18:55.129Z,25.25
2017-06-10T06:19:55.134Z,25.31
2017-06-10T06:20:55.128Z,25.44
2017-06-10T06:21:55.132Z,25.98
2017-06-10T06:22:54.821Z,26.22
2017-06-10T06:23:55.127Z,26.08
2017-06-10T06:24:54.823Z,26.19
2017-06-10T06:25:54.515Z,26.53
2017-06-10T06:26:54.820Z,26.89
2017-06-10T06:27:55.127Z,27.55
2017-06-10T06:28:55.126Z,28.12
2017-06-10T06:29:55.123Z,28.64
2017-06-10T06:30:55.123Z,29.12
2017-06-10T06:31:54.822Z,29.67
2017-06-10T06:32:54.827Z,30.14
2017-06-10T06:33:55.130Z,30.44
2017-06-10T06:34:55.129Z,30.69
2017-06-10T06:35:55.128Z,30.74
2017-06-10T06:36:55.157Z,30.78
2017-06-10T06:37:55.133Z,30.8
2017-06-10T06:38:55.126Z,30.81
2017-06-10T06:39:55.132Z,30.85
2017-06-10T06:40:54.826Z,30.98
2017-06-10T06:41:54.823Z,31.33
2017-06-10T06:42:55.133Z,31.62
2017-06-10T06:43:55.132Z,31.69
2017-06-10T06:44:54.827Z,31.74
2017-06-10T06:45:54.829Z,31.62
2017-06-10T06:46:55.137Z,31.74
2017-06-10T06:47:55.140Z,31.79
2017-06-10T06:48:55.136Z,31.93
2017-06-10T06:49:54.831Z,32.2
2017-06-10T06:50:55.136Z,32.17
2017-06-10T06:51:54.836Z,32.22
2017-06-10T06:52:55.143Z,32.31
2017-06-10T06:53:54.837Z,32.35
2017-06-10T06:54:54.840Z,32.42
2017-06-10T06:55:55.141Z,32.6
2017-06-10T06:56:55.142Z,32.76
2017-06-10T06:57:54.838Z,32.79
2017-06-10T06:58:54.846Z,32.85
2017-06-10T06:59:55.147Z,32.98
2017-06-10T07:00:55.148Z,33.05
2017-06-10T07:01:55.144Z,33.28
2017-06-10T07:02:55.144Z,33.4
2017-06-10T07:03:55.145Z,33.65
2017-06-10T07:04:54.840Z,33.85
2017-06-10T07:05:55.145Z,33.91
2017-06-10T07:06:55.142Z,34.16
2017-06-10T07:07:55.148Z,34.18
2017-06-10T07:08:55.153Z,34.26
2017-06-10T07:09:55.148Z,34.35
2017-06-10T07:10:55.148Z,34.29
2017-06-10T07:11:55.147Z,34.25
2017-06-10T07:12:55.146Z,34.25
2017-06-10T07:13:55.145Z,34.51
2017-06-10T07:14:54.837Z,34.63
2017-06-10T07:15:54.847Z,34.86
2017-06-10T07:16:55.148Z,34.93
2017-06-10T07:17:55.146Z,35.04
2017-06-10T07:18:55.142Z,35.15
2017-06-10T07:19:54.844Z,35.19
2017-06-10T07:20:55.140Z,35.26
2017-06-10T07:21:54.835Z,35.22
2017-06-10T07:22:54.838Z,35.2
2017-06-10T07:23:54.838Z,35.25
2017-06-10T07:24:54.531Z,35.08
2017-06-10T07:25:55.141Z,35.05
2017-06-10T07:26:54.833Z,34.66
2017-06-10T07:27:55.137Z,34.51
2017-06-10T07:28:55.139Z,34.35
2017-06-10T07:29:55.136Z,34.31
2017-06-10T07:30:55.135Z,34.43
2017-06-10T07:31:54.832Z,34.5
2017-06-10T07:32:55.139Z,34.66
2017-06-10T07:33:54.523Z,34.76
2017-06-10T07:34:54.830Z,34.78
2017-06-10T07:35:55.131Z,34.86
2017-06-10T07:36:55.131Z,35.08
2017-06-10T07:37:54.830Z,35.03
2017-06-10T07:38:54.826Z,35.18
2017-06-10T07:39:54.823Z,35.19
2017-06-10T07:40:55.128Z,35.27
2017-06-10T07:41:55.127Z,35.3
2017-06-10T07:42:54.819Z,35.56
2017-06-10T07:43:54.819Z,35.49
2017-06-10T07:44:55.129Z,35.53
2017-06-10T07:45:55.120Z,35.6
2017-06-10T07:46:55.125Z,35.54
2017-06-10T07:47:55.120Z,35.66
2017-06-10T07:48:55.124Z,35.84
2017-06-10T07:49:54.814Z,36.05
2017-06-10T07:50:55.121Z,36.22
2017-06-10T07:51:54.811Z,36.32
2017-06-10T07:52:54.815Z,36.32
2017-06-10T07:53:54.814Z,36.03
2017-06-10T07:54:55.317Z,35.94
2017-06-10T07:55:54.810Z,35.86
2017-06-10T07:56:54.808Z,35.82
2017-06-10T07:57:54.506Z,35.69
2017-06-10T07:58:54.810Z,35.71
2017-06-10T07:59:55.110Z,35.82
2017-06-10T08:00:55.108Z,35.72
2017-06-10T08:01:55.107Z,35.59
2017-06-10T08:02:54.805Z,35.59
2017-06-10T08:03:54.799Z,35.6
2017-06-10T08:04:55.107Z,35.69
2017-06-10T08:05:55.102Z,35.94
2017-06-10T08:06:54.796Z,36.22
2017-06-10T08:07:54.796Z,36.18
2017-06-10T08:08:54.795Z,36.2
2017-06-10T08:09:55.100Z,36.41
2017-06-10T08:10:55.098Z,36.5
2017-06-10T08:11:54.792Z,36.48
2017-06-10T08:12:55.096Z,36.62
2017-06-10T08:13:55.096Z,36.75
2017-06-10T08:14:55.090Z,36.62
2017-06-10T08:15:54.817Z,36.53
2017-06-10T08:16:54.790Z,36.48
2017-06-10T08:17:55.089Z,36.33
2017-06-10T08:18:55.087Z,36.43
2017-06-10T08:19:55.086Z,36.44
2017-06-10T08:20:54.473Z,36.45
2017-06-10T08:21:55.081Z,36.36
2017-06-10T08:22:55.082Z,36.51
2017-06-10T08:23:54.775Z,36.55
2017-06-10T08:24:55.083Z,36.7
2017-06-10T08:25:54.772Z,36.73
2017-06-10T08:26:54.771Z,36.65
2017-06-10T08:27:54.769Z,36.6
2017-06-10T08:28:55.074Z,36.66
2017-06-10T08:29:55.070Z,36.78
2017-06-10T08:30:54.764Z,36.73
2017-06-10T08:31:55.071Z,36.66
2017-06-10T08:32:55.068Z,36.87
2017-06-10T08:33:54.756Z,36.84
2017-06-10T08:34:55.065Z,36.92
2017-06-10T08:35:55.064Z,36.84
2017-06-10T08:36:55.061Z,36.66
2017-06-10T08:37:55.058Z,36.72
2017-06-10T08:38:55.056Z,36.63
2017-06-10T08:39:55.057Z,36.67
2017-06-10T08:40:54.746Z,36.75
2017-06-10T08:41:55.050Z,36.75
2017-06-10T08:42:55.053Z,36.73
2017-06-10T08:43:54.439Z,36.82
2017-06-10T08:44:55.049Z,36.75
2017-06-10T08:45:55.045Z,36.54
2017-06-10T08:46:55.049Z,36.6
2017-06-10T08:47:55.041Z,36.57
2017-06-10T08:48:55.042Z,36.63
2017-06-10T08:49:55.040Z,36.26
2017-06-10T08:50:55.038Z,35.75
2017-06-10T08:51:54.727Z,35.16
2017-06-10T08:52:55.033Z,34.47
2017-06-10T08:53:55.031Z,33.79
2017-06-10T08:54:55.031Z,33.13
2017-06-10T08:55:54.720Z,32.41
2017-06-10T08:56:54.721Z,31.67
2017-06-10T08:57:55.027Z,31.15
2017-06-10T08:58:55.024Z,30.63
2017-06-10T08:59:55.037Z,30.05
2017-06-10T09:00:55.015Z,29.73
2017-06-10T09:01:55.018Z,29.47
2017-06-10T09:02:55.010Z,29.32
2017-06-10T09:03:55.010Z,29.16
2017-06-10T09:04:54.704Z,28.96
2017-06-10T09:05:55.008Z,28.84
2017-06-10T09:06:54.699Z,28.82
2017-06-10T09:07:55.002Z,28.68
2017-06-10T09:08:54.387Z,28.65
2017-06-10T09:09:55.024Z,28.49
2017-06-10T09:10:54.691Z,28.34
2017-06-10T09:11:55.001Z,28.31
2017-06-10T09:12:54.685Z,28.2
2017-06-10T09:13:54.681Z,27.97
2017-06-10T09:14:54.684Z,27.97
2017-06-10T09:15:54.679Z,27.95
2017-06-10T09:16:54.677Z,28.08
2017-06-10T09:17:54.683Z,28.18
2017-06-10T09:18:54.372Z,28.19
2017-06-10T09:19:54.976Z,28.25
2017-06-10T09:20:54.975Z,28.41
2017-06-10T09:21:54.979Z,28.59
2017-06-10T09:22:54.975Z,28.78
2017-06-10T09:23:54.973Z,28.86
2017-06-10T09:24:54.662Z,29
2017-06-10T09:25:54.967Z,29.06
2017-06-10T09:26:54.658Z,28.94
2017-06-10T09:27:54.963Z,28.71
2017-06-10T09:28:54.960Z,28.7
2017-06-10T09:29:54.961Z,28.71
2017-06-10T09:30:54.650Z,28.78
2017-06-10T09:31:54.953Z,28.87
2017-06-10T09:32:54.646Z,29.06
2017-06-10T09:33:54.646Z,29.16
2017-06-10T09:34:54.643Z,29.2
2017-06-10T09:35:54.948Z,29.25
2017-06-10T09:36:54.944Z,29.16
2017-06-10T09:37:54.947Z,29.27
2017-06-10T09:38:54.937Z,29.31
2017-06-10T09:39:54.941Z,29.28
2017-06-10T09:40:54.639Z,29.31
2017-06-10T09:41:54.940Z,29.37
2017-06-10T09:42:54.941Z,29.39
2017-06-10T09:43:54.933Z,29.34
2017-06-10T09:44:54.934Z,29.37
2017-06-10T09:45:54.926Z,29.24
2017-06-10T09:46:54.627Z,29.25
2017-06-10T09:47:54.670Z,29.21
2017-06-10T09:48:54.952Z,29.15
2017-06-10T09:49:54.616Z,29.2
2017-06-10T09:50:54.616Z,29.25
2017-06-10T09:51:54.613Z,29.22
2017-06-10T09:52:54.918Z,29.32
2017-06-10T09:53:54.916Z,29.4
2017-06-10T09:54:54.916Z,29.44
2017-06-10T09:55:54.915Z,29.53
2017-06-10T09:56:54.911Z,29.46
2017-06-10T09:57:54.909Z,29.4
2017-06-10T09:58:54.911Z,29.43
2017-06-10T09:59:54.907Z,29.42
2017-06-10T10:00:54.600Z,29.5
2017-06-10T10:01:54.901Z,29.55
2017-06-10T10:02:54.900Z,29.46
2017-06-10T10:03:54.593Z,29.62
2017-06-10T10:04:54.899Z,29.42
2017-06-10T10:05:54.589Z,29.25
2017-06-10T10:06:54.608Z,29.27
2017-06-10T10:07:54.891Z,29.25
2017-06-10T10:08:54.892Z,29.25
2017-06-10T10:09:54.893Z,29.3
2017-06-10T10:10:54.889Z,29.31
2017-06-10T10:11:54.883Z,29.39
2017-06-10T10:12:54.884Z,29.4
2017-06-10T10:13:54.883Z,29.43
2017-06-10T10:14:54.880Z,29.5
2017-06-10T10:15:54.572Z,29.62
2017-06-10T10:16:54.883Z,29.5
2017-06-10T10:17:54.570Z,29.61
2017-06-10T10:18:54.877Z,29.67
2017-06-10T10:19:54.569Z,29.69
2017-06-10T10:20:54.566Z,29.59
2017-06-10T10:21:54.568Z,29.44
2017-06-10T10:22:54.592Z,29.43
2017-06-10T10:23:54.560Z,29.39
2017-06-10T10:24:54.874Z,29.44
2017-06-10T10:25:54.563Z,29.55
2017-06-10T10:26:54.554Z,29.43
2017-06-10T10:27:54.555Z,29.4
2017-06-10T10:28:54.858Z,29.31
2017-06-10T10:29:54.860Z,29.27
2017-06-10T10:30:54.855Z,29.22
2017-06-10T10:31:54.856Z,29.18
2017-06-10T10:32:54.853Z,29.24
2017-06-10T10:33:54.853Z,29.27
2017-06-10T10:34:54.543Z,29.32
2017-06-10T10:35:54.544Z,29.32
2017-06-10T10:36:54.541Z,29.34
2017-06-10T10:37:54.845Z,29.27
2017-06-10T10:38:54.540Z,29.32
2017-06-10T10:39:54.536Z,29.3
2017-06-10T10:40:54.540Z,29.4
2017-06-10T10:41:54.838Z,29.32
2017-06-10T10:42:54.227Z,29.31
2017-06-10T10:43:54.229Z,29.39
2017-06-10T10:44:54.834Z,29.37
2017-06-10T10:45:54.831Z,29.37
2017-06-10T10:46:54.833Z,29.4
2017-06-10T10:47:54.843Z,29.34
2017-06-10T10:48:54.524Z,29.3
2017-06-10T10:49:54.834Z,29.28
2017-06-10T10:50:54.825Z,29.34
2017-06-10T10:51:54.824Z,29.4
2017-06-10T10:52:54.519Z,29.37
2017-06-10T10:53:54.827Z,29.39
2017-06-10T10:54:54.514Z,29.42
2017-06-10T10:55:54.515Z,29.37
2017-06-10T10:56:54.817Z,29.28
2017-06-10T10:57:54.818Z,29.21
2017-06-10T10:58:54.508Z,29.21
2017-06-10T10:59:54.809Z,29.18
2017-06-10T11:00:54.814Z,29.22
2017-06-10T11:01:54.810Z,29.21
2017-06-10T11:02:54.811Z,29.27
2017-06-10T11:03:54.809Z,29.35
2017-06-10T11:04:54.810Z,29.37
2017-06-10T11:05:54.500Z,29.32
2017-06-10T11:06:54.801Z,29.31
2017-06-10T11:07:54.806Z,29.31
2017-06-10T11:08:54.800Z,29.32
2017-06-10T11:09:54.801Z,29.27
2017-06-10T11:10:54.495Z,29.34
2017-06-10T11:11:54.490Z,29.22
2017-06-10T11:12:54.796Z,29.1
2017-06-10T11:13:54.487Z,28.94
2017-06-10T11:14:54.486Z,28.84
2017-06-10T11:15:54.792Z,28.87
2017-06-10T11:16:54.790Z,28.89
2017-06-10T11:17:54.787Z,28.92
2017-06-10T11:18:54.783Z,28.97
2017-06-10T11:19:54.481Z,29.07
2017-06-10T11:20:54.780Z,29.1
2017-06-10T11:21:54.779Z,29
2017-06-10T11:22:54.778Z,28.96
2017-06-10T11:23:54.472Z,28.93
2017-06-10T11:24:54.478Z,28.89
2017-06-10T11:25:54.773Z,28.9
2017-06-10T11:26:54.464Z,28.8
2017-06-10T11:27:54.773Z,28.72
2017-06-10T11:28:54.462Z,28.74
2017-06-10T11:29:54.768Z,28.78
2017-06-10T11:30:54.460Z,28.77
2017-06-10T11:31:54.765Z,28.72
2017-06-10T11:32:54.765Z,28.71
2017-06-10T11:33:54.758Z,28.65
2017-06-10T11:34:54.760Z,28.59
2017-06-10T11:35:54.755Z,28.47
2017-06-10T11:36:54.449Z,28.37
2017-06-10T11:37:54.754Z,28.3
2017-06-10T11:38:54.785Z,28.25
2017-06-10T11:39:54.446Z,28.15
2017-06-10T11:40:54.445Z,28.03
2017-06-10T11:41:54.749Z,28
2017-06-10T11:42:54.750Z,27.86
2017-06-10T11:43:54.737Z,27.85
2017-06-10T11:44:54.740Z,27.61
2017-06-10T11:45:54.739Z,27.61
2017-06-10T11:46:54.737Z,27.52
2017-06-10T11:47:54.735Z,27.35
2017-06-10T11:48:54.732Z,27.23
2017-06-10T11:49:54.731Z,27.2
2017-06-10T11:50:54.727Z,27.11
2017-06-10T11:51:54.423Z,27.1
2017-06-10T11:52:54.417Z,26.97
2017-06-10T11:53:54.724Z,27
2017-06-10T11:54:54.413Z,26.88
2017-06-10T11:55:54.717Z,26.85
2017-06-10T11:56:54.714Z,26.79
2017-06-10T11:57:54.414Z,26.64
2017-06-10T11:58:54.407Z,26.53
2017-06-10T11:59:54.711Z,26.45
2017-06-10T12:00:54.711Z,26.41
2017-06-10T12:01:54.399Z,26.42
2017-06-10T12:02:54.706Z,26.46
2017-06-10T12:03:54.707Z,26.55
2017-06-10T12:04:54.702Z,26.48
2017-06-10T12:05:54.697Z,26.53
2017-06-10T12:06:54.693Z,26.48
2017-06-10T12:07:54.386Z,26.39
2017-06-10T12:08:54.692Z,26.45
2017-06-10T12:09:54.383Z,26.39
2017-06-10T12:10:54.685Z,26.39
2017-06-10T12:11:54.383Z,26.27
2017-06-10T12:12:54.375Z,26.1
2017-06-10T12:13:54.682Z,26.01
2017-06-10T12:14:54.678Z,25.85
2017-06-10T12:15:54.676Z,25.86
2017-06-10T12:16:54.058Z,25.62
2017-06-10T12:17:54.673Z,25.71
2017-06-10T12:18:54.665Z,25.73
2017-06-10T12:19:54.055Z,25.58
2017-06-10T12:20:54.662Z,25.74
2017-06-10T12:21:54.660Z,25.77
2017-06-10T12:22:54.660Z,25.7
2017-06-10T12:23:54.354Z,25.71
2017-06-10T12:24:54.655Z,25.62
2017-06-10T12:25:54.343Z,25.52
2017-06-10T12:26:54.652Z,25.55
2017-06-10T12:27:54.341Z,25.55
2017-06-10T12:28:54.649Z,25.48
2017-06-10T12:29:54.337Z,25.51
2017-06-10T12:30:54.636Z,25.63
2017-06-10T12:31:54.638Z,25.71
2017-06-10T12:32:54.639Z,25.67
2017-06-10T12:33:54.637Z,25.76
2017-06-10T12:34:54.631Z,25.76
2017-06-10T12:35:54.324Z,25.81
2017-06-10T12:36:54.327Z,25.76
2017-06-10T12:37:54.318Z,25.85
2017-06-10T12:38:54.622Z,25.8
2017-06-10T12:39:54.320Z,25.85
2017-06-10T12:40:54.630Z,25.92
2017-06-10T12:41:54.615Z,25.95
2017-06-10T12:42:54.610Z,25.89
2017-06-10T12:43:54.610Z,25.88
2017-06-10T12:44:54.502Z,25.85
2017-06-10T12:45:54.605Z,25.81
2017-06-10T12:46:54.603Z,25.76
2017-06-10T12:47:54.599Z,25.83
2017-06-10T12:48:54.599Z,25.78
2017-06-10T12:49:54.294Z,25.81
2017-06-10T12:50:54.611Z,25.85
2017-06-10T12:51:54.288Z,25.81
2017-06-10T12:52:54.588Z,25.71
2017-06-10T12:53:54.583Z,25.63
2017-06-10T12:54:54.581Z,25.52
2017-06-10T12:55:54.586Z,25.55